createdAt,value
2023-05-07T00:00:19.025Z,1.60
2023-05-07T00:02:48.910Z,1.73
2023-05-07T00:05:15.892Z,1.70
2023-05-07T00:07:42.645Z,1.67
2023-05-07T00:10:09.918Z,1.60
2023-05-07T00:12:36.641Z,1.60
2023-05-07T00:15:03.995Z,1.97
2023-05-07T00:17:31.237Z,1.70
2023-05-07T00:19:57.816Z,1.60
2023-05-07T00:22:24.325Z,2.33
2023-05-07T00:24:50.865Z,2.30
2023-05-07T00:27:17.388Z,1.60
2023-05-07T00:29:43.950Z,1.60
2023-05-07T00:32:10.641Z,1.80
2023-05-07T00:34:37.243Z,2.90
2023-05-07T00:37:06.015Z,1.83
2023-05-07T00:39:33.162Z,1.70
2023-05-07T00:41:59.789Z,1.63
2023-05-07T00:44:26.338Z,1.80
2023-05-07T00:46:52.994Z,1.77
2023-05-07T00:49:19.548Z,1.87
2023-05-07T00:51:46.461Z,1.90
2023-05-07T00:54:12.970Z,1.70
2023-05-07T00:56:40.125Z,1.67
2023-05-07T00:59:06.902Z,1.70
2023-05-07T01:01:33.504Z,1.87
2023-05-07T01:04:00.152Z,1.87
2023-05-07T01:06:28.759Z,1.63
2023-05-07T01:08:57.661Z,1.67
2023-05-07T01:11:24.299Z,1.97
2023-05-07T01:13:51.190Z,1.70
2023-05-07T01:16:17.717Z,2.00
2023-05-07T01:18:44.243Z,1.60
2023-05-07T01:21:12.024Z,1.50
2023-05-07T01:23:38.499Z,1.57
2023-05-07T01:26:05.068Z,2.10
2023-05-07T01:28:31.544Z,1.60
2023-05-07T01:31:02.622Z,1.50
2023-05-07T01:33:29.339Z,1.70
2023-05-07T01:35:55.921Z,1.80
2023-05-07T01:38:22.966Z,1.60
2023-05-07T01:40:49.463Z,1.57
2023-05-07T01:43:16.448Z,1.57
2023-05-07T01:45:42.995Z,2.17
2023-05-07T01:48:12.103Z,1.80
2023-05-07T01:50:38.635Z,3.73
2023-05-07T01:53:05.168Z,1.57
2023-05-07T01:55:31.880Z,2.13
2023-05-07T01:57:58.354Z,1.80
2023-05-07T02:00:25.010Z,1.97
2023-05-07T02:02:52.732Z,1.60
2023-05-07T02:05:19.429Z,1.73
2023-05-07T02:07:45.919Z,1.70
2023-05-07T02:10:12.766Z,1.53
2023-05-07T02:12:39.589Z,1.70
2023-05-07T02:15:06.657Z,1.73
2023-05-07T02:17:34.051Z,1.90
2023-05-07T02:20:00.949Z,1.80
2023-05-07T02:22:27.487Z,1.63
2023-05-07T02:24:54.028Z,1.70
2023-05-07T02:27:20.682Z,1.90
2023-05-07T02:29:47.183Z,1.70
2023-05-07T02:32:13.810Z,1.70
2023-05-07T02:34:40.436Z,1.50
2023-05-07T02:37:07.055Z,1.70
2023-05-07T02:39:33.719Z,1.50
2023-05-07T02:42:00.255Z,1.60
2023-05-07T02:44:26.795Z,1.67
2023-05-07T02:46:53.307Z,1.70
2023-05-07T02:49:19.832Z,1.60
2023-05-07T02:51:46.394Z,1.83
2023-05-07T02:54:12.980Z,1.60
2023-05-07T02:56:39.501Z,1.70
2023-05-07T02:59:06.225Z,1.60
2023-05-07T03:01:32.732Z,1.70
2023-05-07T03:03:59.386Z,1.90
2023-05-07T03:06:26.121Z,1.60
2023-05-07T03:08:52.703Z,1.50
2023-05-07T03:11:19.198Z,1.30
2023-05-07T03:13:46.182Z,1.70
2023-05-07T03:16:12.987Z,1.50
2023-05-07T03:18:39.609Z,1.40
2023-05-07T03:21:06.271Z,1.60
2023-05-07T03:23:32.812Z,1.70
2023-05-07T03:25:59.329Z,1.60
2023-05-07T03:28:25.876Z,1.60
2023-05-07T03:30:52.436Z,1.60
2023-05-07T03:33:19.021Z,1.50
2023-05-07T03:35:45.570Z,1.53
2023-05-07T03:38:12.091Z,1.60
2023-05-07T03:40:38.626Z,2.27
2023-05-07T03:43:05.388Z,1.47
2023-05-07T03:45:31.970Z,1.70
2023-05-07T03:47:58.496Z,1.60
2023-05-07T03:50:25.281Z,1.60
2023-05-07T03:52:51.777Z,1.70
2023-05-07T03:55:18.968Z,1.50
2023-05-07T03:57:45.607Z,1.50
2023-05-07T04:00:13.058Z,1.50
2023-05-07T04:02:40.125Z,1.60
2023-05-07T04:05:06.860Z,1.67
2023-05-07T04:07:33.380Z,1.30
2023-05-07T04:09:59.984Z,1.63
2023-05-07T04:12:26.501Z,1.40
2023-05-07T04:14:53.179Z,1.47
2023-05-07T04:17:19.798Z,1.60
2023-05-07T04:19:46.534Z,1.60
2023-05-07T04:22:13.371Z,1.60
2023-05-07T04:24:39.933Z,1.47
2023-05-07T04:27:07.424Z,1.60
2023-05-07T04:29:34.048Z,1.57
2023-05-07T04:32:00.699Z,1.80
2023-05-07T04:34:27.277Z,1.50
2023-05-07T04:36:54.109Z,1.37
2023-05-07T04:39:20.735Z,1.50
2023-05-07T04:41:47.253Z,1.80
2023-05-07T04:44:13.875Z,1.53
2023-05-07T04:46:40.415Z,1.57
2023-05-07T04:49:06.981Z,1.50
2023-05-07T04:51:34.014Z,1.50
2023-05-07T04:54:00.982Z,1.70
2023-05-07T04:56:30.216Z,1.57
2023-05-07T04:58:56.910Z,1.50
2023-05-07T05:01:23.492Z,1.60
2023-05-07T05:03:50.110Z,1.60
2023-05-07T05:06:16.672Z,1.80
2023-05-07T05:08:43.188Z,1.60
2023-05-07T05:11:09.747Z,1.70
2023-05-07T05:13:36.309Z,1.50
2023-05-07T05:16:02.860Z,1.50
2023-05-07T05:18:29.393Z,1.40
2023-05-07T05:20:55.991Z,1.70
2023-05-07T05:23:22.617Z,3.50
2023-05-07T05:25:49.210Z,1.53
2023-05-07T05:28:15.848Z,1.80
2023-05-07T05:30:42.476Z,1.33
2023-05-07T05:33:09.052Z,1.70
2023-05-07T05:35:36.443Z,1.73
2023-05-07T05:38:03.174Z,1.60
2023-05-07T05:40:29.837Z,2.10
2023-05-07T05:42:56.405Z,1.60
2023-05-07T05:45:22.896Z,1.70
2023-05-07T05:47:49.463Z,2.90
2023-05-07T05:50:16.043Z,5.53
2023-05-07T05:52:43.052Z,2.93
2023-05-07T05:55:09.795Z,3.43
2023-05-07T05:57:36.513Z,5.57
2023-05-07T06:00:03.620Z,3.63
2023-05-07T06:02:30.397Z,8.70
2023-05-07T06:04:57.175Z,3.23
2023-05-07T06:07:23.764Z,3.10
2023-05-07T06:09:50.324Z,6.83
2023-05-07T06:12:16.832Z,2.97
2023-05-07T06:14:46.474Z,3.17
2023-05-07T06:17:13.022Z,3.83
2023-05-07T06:19:39.535Z,3.60
2023-05-07T06:22:06.373Z,2.87
2023-05-07T06:24:32.932Z,2.93
2023-05-07T06:26:59.822Z,9.00
2023-05-07T06:29:31.271Z,7.30
2023-05-07T06:31:57.792Z,8.33
2023-05-07T06:34:24.392Z,4.03
2023-05-07T06:36:50.930Z,10.33
2023-05-07T06:39:17.470Z,2.33
2023-05-07T06:41:44.025Z,5.37
2023-05-07T06:44:10.710Z,6.13
2023-05-07T06:46:37.233Z,14.97
2023-05-07T06:49:03.796Z,6.50
2023-05-07T06:51:31.162Z,3.57
2023-05-07T06:53:57.708Z,7.27
2023-05-07T06:56:24.417Z,6.03
2023-05-07T06:58:51.109Z,9.73
2023-05-07T07:01:17.676Z,4.03
2023-05-07T07:03:44.230Z,6.20
2023-05-07T07:06:10.793Z,3.40
2023-05-07T07:08:39.740Z,4.43
2023-05-07T07:11:06.994Z,2.53
2023-05-07T07:13:33.527Z,7.23
2023-05-07T07:16:00.671Z,4.10
2023-05-07T07:18:27.296Z,7.87
2023-05-07T07:20:53.865Z,2.90
2023-05-07T07:23:20.422Z,3.60
2023-05-07T07:25:46.999Z,4.60
2023-05-07T07:28:13.601Z,2.50
2023-05-07T07:30:40.513Z,5.33
2023-05-07T07:33:07.161Z,3.23
2023-05-07T07:35:33.876Z,3.60
2023-05-07T07:38:00.483Z,3.30
2023-05-07T07:40:27.092Z,3.33
2023-05-07T07:42:54.250Z,3.20
2023-05-07T07:45:21.134Z,2.20
2023-05-07T07:47:47.792Z,2.83
2023-05-07T07:50:21.247Z,2.60
2023-05-07T07:52:58.574Z,2.80
2023-05-07T07:55:25.292Z,3.80
2023-05-07T07:57:51.929Z,3.73
2023-05-07T08:00:18.534Z,6.30
2023-05-07T08:02:45.201Z,3.57
2023-05-07T08:05:11.825Z,3.20
2023-05-07T08:07:38.430Z,2.20
2023-05-07T08:10:05.442Z,3.40
2023-05-07T08:12:31.923Z,1.90
2023-05-07T08:14:58.498Z,2.10
2023-05-07T08:17:25.548Z,4.67
2023-05-07T08:19:52.227Z,2.27
2023-05-07T08:22:19.436Z,3.43
2023-05-07T08:24:46.132Z,2.10
2023-05-07T08:27:12.922Z,2.20
2023-05-07T08:29:39.470Z,2.20
2023-05-07T08:32:06.054Z,2.13
2023-05-07T08:34:32.623Z,2.53
2023-05-07T08:36:59.113Z,2.00
2023-05-07T08:39:25.846Z,3.43
2023-05-07T08:41:52.394Z,2.20
2023-05-07T08:44:19.092Z,2.13
2023-05-07T08:46:47.656Z,2.20
2023-05-07T08:49:14.566Z,3.73
2023-05-07T08:51:41.263Z,5.80
2023-05-07T08:54:08.224Z,3.73
2023-05-07T08:56:34.870Z,3.73
2023-05-07T08:59:01.447Z,3.90
2023-05-07T09:01:28.331Z,3.17
2023-05-07T09:03:55.460Z,3.30
2023-05-07T09:06:22.919Z,4.17
2023-05-07T09:08:53.574Z,5.40
2023-05-07T09:11:23.817Z,3.83
2023-05-07T09:13:57.192Z,3.80
2023-05-07T09:16:24.362Z,2.63
2023-05-07T09:18:54.392Z,3.60
2023-05-07T09:21:21.452Z,4.07
2023-05-07T09:23:55.284Z,4.00
2023-05-07T09:26:25.260Z,4.63
2023-05-07T09:28:52.301Z,2.93
2023-05-07T09:31:21.135Z,3.30
2023-05-07T09:33:48.210Z,2.67
2023-05-07T09:36:14.784Z,3.67
2023-05-07T09:38:41.353Z,4.30
2023-05-07T09:41:12.287Z,4.20
2023-05-07T09:43:39.529Z,3.80
2023-05-07T09:46:13.991Z,3.13
2023-05-07T09:48:41.878Z,3.57
2023-05-07T09:51:30.042Z,3.60
2023-05-07T09:53:57.650Z,4.53
2023-05-07T09:56:24.170Z,2.70
2023-05-07T09:58:50.834Z,3.97
2023-05-07T10:01:17.439Z,2.67
2023-05-07T10:03:44.082Z,2.50
2023-05-07T10:06:11.482Z,2.93
2023-05-07T10:08:38.296Z,3.83
2023-05-07T10:11:05.867Z,3.43
2023-05-07T10:13:34.558Z,2.83
2023-05-07T10:16:01.057Z,3.73
2023-05-07T10:18:30.900Z,4.07
2023-05-07T10:20:57.974Z,3.27
2023-05-07T10:23:24.877Z,4.17
2023-05-07T10:25:52.427Z,3.70
2023-05-07T10:28:20.871Z,3.10
2023-05-07T10:30:48.921Z,3.20
2023-05-07T10:33:18.015Z,5.47
2023-05-07T10:35:45.498Z,4.50
2023-05-07T10:38:12.064Z,5.17
2023-05-07T10:40:38.676Z,7.23
2023-05-07T10:43:07.762Z,3.50
2023-05-07T10:45:36.675Z,3.37
2023-05-07T10:50:45.557Z,3.80
2023-05-07T10:53:18.023Z,3.53
2023-05-07T10:55:47.905Z,3.17
2023-05-07T11:01:00.944Z,3.60
2023-05-07T11:03:28.084Z,5.20
2023-05-07T11:06:14.230Z,4.90
2023-05-07T11:08:52.890Z,4.70
2023-05-07T11:11:20.552Z,3.27
2023-05-07T11:13:48.268Z,7.47
2023-05-07T11:16:22.063Z,3.67
2023-05-07T11:18:53.322Z,4.80
2023-05-07T11:21:39.318Z,4.27
2023-05-07T11:24:06.998Z,6.63
2023-05-07T11:26:44.458Z,4.53
2023-05-07T11:29:29.943Z,7.47
2023-05-07T11:31:56.585Z,5.73
2023-05-07T11:34:27.120Z,8.47
2023-05-07T11:36:53.870Z,8.53
2023-05-07T11:39:34.218Z,7.47
2023-05-07T11:42:01.350Z,6.90
2023-05-07T11:44:42.400Z,7.17
2023-05-07T11:47:08.959Z,7.97
2023-05-07T11:49:35.500Z,8.33
2023-05-07T11:52:01.984Z,7.50
2023-05-07T11:54:36.327Z,9.83
2023-05-07T11:57:02.860Z,5.97
2023-05-07T11:59:29.395Z,10.60
2023-05-07T12:02:00.191Z,6.80
2023-05-07T12:04:26.874Z,4.33
2023-05-07T12:06:56.825Z,5.93
2023-05-07T12:09:23.375Z,5.20
2023-05-07T12:11:49.890Z,4.17
2023-05-07T12:14:19.068Z,5.43
2023-05-07T12:16:46.029Z,4.13
2023-05-07T12:19:16.130Z,6.30
2023-05-07T12:21:42.739Z,7.97
2023-05-07T12:24:09.333Z,9.13
2023-05-07T12:26:39.310Z,4.97
2023-05-07T12:29:05.891Z,5.50
2023-05-07T12:31:32.455Z,5.37
2023-05-07T12:33:59.038Z,3.90
2023-05-07T12:36:26.725Z,3.43
2023-05-07T12:38:53.289Z,4.97
2023-05-07T12:41:19.938Z,3.63
2023-05-07T12:43:46.771Z,5.50
2023-05-07T12:46:14.773Z,3.40
2023-05-07T12:48:44.715Z,4.50
2023-05-07T12:51:13.304Z,4.30
2023-05-07T12:53:43.486Z,5.23
2023-05-07T12:56:10.163Z,4.63
2023-05-07T12:58:36.943Z,3.73
2023-05-07T13:01:07.681Z,3.30
2023-05-07T13:03:35.947Z,4.43
2023-05-07T13:06:11.751Z,3.07
2023-05-07T13:08:43.745Z,3.30
2023-05-07T13:13:38.470Z,2.53
2023-05-07T13:16:05.843Z,3.87
2023-05-07T13:18:32.875Z,2.37
2023-05-07T13:20:59.696Z,3.43
2023-05-07T13:23:26.386Z,3.53
2023-05-07T13:25:56.828Z,4.27
2023-05-07T13:28:24.340Z,6.13
2023-05-07T13:30:52.738Z,5.67
2023-05-07T13:33:19.334Z,3.63
2023-05-07T13:35:45.838Z,5.37
2023-05-07T13:38:12.361Z,4.53
2023-05-07T13:40:38.869Z,6.70
2023-05-07T13:43:06.560Z,5.03
2023-05-07T13:45:33.219Z,5.03
2023-05-07T13:47:59.965Z,3.87
2023-05-07T13:50:28.104Z,5.27
2023-05-07T13:52:54.749Z,4.93
2023-05-07T13:55:22.348Z,5.97
2023-05-07T13:57:48.876Z,5.20
2023-05-07T14:00:17.274Z,4.37
2023-05-07T14:02:44.070Z,3.70
2023-05-07T14:05:11.245Z,5.87
2023-05-07T14:07:38.193Z,14.60
2023-05-07T14:10:05.415Z,4.93
2023-05-07T14:12:33.046Z,3.30
2023-05-07T14:14:59.812Z,4.00
2023-05-07T14:17:27.952Z,4.10
2023-05-07T14:19:55.367Z,4.73
2023-05-07T14:22:24.931Z,3.80
2023-05-07T14:25:03.154Z,5.70
2023-05-07T14:27:32.934Z,5.10
2023-05-07T14:29:59.562Z,5.73
2023-05-07T14:32:26.139Z,3.30
2023-05-07T14:34:52.689Z,4.60
2023-05-07T14:37:20.826Z,3.73
2023-05-07T14:39:49.898Z,3.40
2023-05-07T14:42:17.195Z,3.13
2023-05-07T14:44:44.022Z,3.23
2023-05-07T14:47:10.929Z,4.77
2023-05-07T14:49:37.449Z,3.13
2023-05-07T14:52:05.312Z,3.63
2023-05-07T14:54:31.838Z,3.03
2023-05-07T14:56:58.321Z,3.67
2023-05-07T14:59:26.109Z,5.10
2023-05-07T15:01:52.902Z,3.00
2023-05-07T15:04:19.798Z,6.73
2023-05-07T15:06:47.275Z,3.30
2023-05-07T15:09:14.394Z,4.07
2023-05-07T15:11:40.992Z,4.30
2023-05-07T15:14:07.595Z,4.30
2023-05-07T15:16:35.042Z,3.67
2023-05-07T15:19:01.727Z,4.33
2023-05-07T15:21:28.460Z,3.80
2023-05-07T15:23:55.037Z,3.50
2023-05-07T15:26:21.835Z,6.10
2023-05-07T15:28:48.356Z,3.73
2023-05-07T15:31:16.110Z,3.27
2023-05-07T15:33:42.624Z,4.93
2023-05-07T15:36:09.221Z,4.43
2023-05-07T15:38:35.747Z,5.13
2023-05-07T15:41:02.303Z,4.03
2023-05-07T15:43:28.836Z,5.07
2023-05-07T15:45:55.794Z,3.53
2023-05-07T15:48:22.530Z,3.40
2023-05-07T15:50:49.200Z,6.47
2023-05-07T15:53:15.723Z,4.13
2023-05-07T15:55:44.353Z,3.00
2023-05-07T15:58:10.891Z,4.13
2023-05-07T16:00:37.454Z,11.27
2023-05-07T16:03:04.080Z,11.27
2023-05-07T16:05:31.223Z,6.57
2023-05-07T16:07:58.077Z,5.03
2023-05-07T16:10:24.689Z,6.80
2023-05-07T16:12:51.243Z,8.67
2023-05-07T16:15:17.880Z,4.60
2023-05-07T16:17:47.669Z,5.30
2023-05-07T16:20:15.369Z,7.27
2023-05-07T16:22:42.373Z,9.73
2023-05-07T16:25:09.701Z,4.63
2023-05-07T16:27:36.443Z,3.40
2023-05-07T16:45:14.030Z,4.33
2023-05-07T16:47:40.804Z,6.53
2023-05-07T16:50:07.691Z,6.57
2023-05-07T16:52:34.229Z,4.80
2023-05-07T16:55:01.600Z,6.70
2023-05-07T16:57:29.489Z,3.77
2023-05-07T17:07:33.906Z,4.10
2023-05-07T17:12:59.334Z,3.47
2023-05-07T17:15:26.220Z,4.70
2023-05-07T17:17:52.895Z,4.27
2023-05-07T17:20:19.747Z,3.30
2023-05-07T17:22:46.459Z,3.73
2023-05-07T17:25:14.768Z,10.77
2023-05-07T17:27:41.479Z,11.90
2023-05-07T17:30:08.759Z,4.07
2023-05-07T17:32:35.467Z,7.63
2023-05-07T17:35:02.426Z,9.07
2023-05-07T17:37:28.977Z,6.37
2023-05-07T17:39:56.212Z,8.07
2023-05-07T17:42:22.783Z,3.67
2023-05-07T17:44:49.303Z,5.53
2023-05-07T17:47:15.792Z,7.00
2023-05-07T17:49:42.378Z,4.27
2023-05-07T17:52:09.086Z,4.87
2023-05-07T17:54:35.550Z,4.63
2023-05-07T17:57:02.021Z,5.80
2023-05-07T17:59:28.752Z,7.87
2023-05-07T18:01:55.363Z,5.90
2023-05-07T18:04:21.992Z,5.17
2023-05-07T18:06:48.479Z,3.70
2023-05-07T18:09:15.263Z,5.70
2023-05-07T18:11:41.715Z,3.23
2023-05-07T18:14:08.222Z,7.73
2023-05-07T18:16:34.869Z,2.97
2023-05-07T18:19:02.171Z,3.87
2023-05-07T18:21:28.730Z,4.97
2023-05-07T18:23:55.231Z,3.57
2023-05-07T18:26:21.779Z,4.63
2023-05-07T18:28:48.288Z,3.47
2023-05-07T18:31:14.864Z,3.73
2023-05-07T18:33:41.409Z,8.17
2023-05-07T18:36:08.132Z,11.03
2023-05-07T18:38:34.659Z,5.00
2023-05-07T18:41:03.056Z,5.53
2023-05-07T18:43:29.604Z,6.00
2023-05-07T18:45:56.294Z,4.60
2023-05-07T18:48:22.840Z,4.63
2023-05-07T18:50:49.624Z,3.37
2023-05-07T18:53:16.193Z,3.60
2023-05-07T18:55:46.041Z,2.53
2023-05-07T18:58:12.663Z,3.80
2023-05-07T19:00:39.118Z,4.73
2023-05-07T19:03:05.746Z,4.60
2023-05-07T19:05:32.278Z,2.93
2023-05-07T19:07:58.818Z,4.80
2023-05-07T19:10:25.323Z,2.40
2023-05-07T19:12:55.325Z,5.23
2023-05-07T19:15:23.352Z,2.77
2023-05-07T19:17:50.813Z,5.70
2023-05-07T19:20:17.387Z,4.20
2023-05-07T19:22:44.081Z,4.63
2023-05-07T19:25:11.077Z,3.13
2023-05-07T19:27:37.784Z,3.97
2023-05-07T19:30:05.720Z,3.07
2023-05-07T19:32:32.215Z,2.50
2023-05-07T19:34:58.819Z,2.60
2023-05-07T19:37:27.160Z,3.57
2023-05-07T19:39:54.588Z,3.93
2023-05-07T19:42:21.176Z,3.50
2023-05-07T19:44:47.659Z,4.03
2023-05-07T19:47:14.160Z,3.17
2023-05-07T19:49:42.253Z,6.97
2023-05-07T19:52:09.215Z,3.87
2023-05-07T19:54:35.878Z,2.57
2023-05-07T19:57:02.415Z,3.23
2023-05-07T19:59:28.954Z,6.33
2023-05-07T20:01:55.486Z,4.07
2023-05-07T20:04:22.057Z,3.43
2023-05-07T20:06:48.641Z,3.10
2023-05-07T20:09:15.310Z,4.83
2023-05-07T20:11:41.837Z,2.40
2023-05-07T20:14:10.063Z,2.10
2023-05-07T20:16:36.730Z,4.30
2023-05-07T20:19:04.271Z,3.87
2023-05-07T20:21:31.352Z,2.93
2023-05-07T20:23:58.167Z,4.10
2023-05-07T20:26:24.728Z,3.80
2023-05-07T20:28:51.218Z,3.87
2023-05-07T20:31:18.037Z,4.47
2023-05-07T20:33:44.653Z,11.53
2023-05-07T20:36:11.185Z,8.33
2023-05-07T20:38:37.782Z,5.67
2023-05-07T20:41:08.084Z,5.50
2023-05-07T20:43:35.198Z,6.70
2023-05-07T20:46:02.477Z,8.47
2023-05-07T20:48:30.815Z,6.73
2023-05-07T20:50:57.943Z,6.97
2023-05-07T20:53:24.594Z,7.07
2023-05-07T20:55:51.579Z,9.47
2023-05-07T20:58:18.348Z,6.17
2023-05-07T21:00:44.884Z,10.27
2023-05-07T21:03:11.559Z,8.27
2023-05-07T21:05:38.151Z,5.20
2023-05-07T21:08:04.969Z,12.27
2023-05-07T21:10:31.482Z,11.00
2023-05-07T21:12:58.043Z,6.93
2023-05-07T21:15:24.589Z,3.67
2023-05-07T21:17:51.190Z,3.53
2023-05-07T21:20:17.746Z,5.03
2023-05-07T21:22:44.299Z,5.03
2023-05-07T21:25:13.150Z,5.23
2023-05-07T21:27:39.964Z,5.97
2023-05-07T21:30:07.195Z,4.73
2023-05-07T21:32:33.773Z,4.03
2023-05-07T21:35:02.834Z,6.53
2023-05-07T21:37:29.612Z,4.33
2023-05-07T21:39:56.300Z,5.80
2023-05-07T21:42:23.484Z,6.00
2023-05-07T21:44:50.130Z,3.73
2023-05-07T21:47:16.687Z,4.80
2023-05-07T21:49:43.408Z,4.20
2023-05-07T21:52:13.694Z,4.47
2023-05-07T21:54:40.270Z,4.87
2023-05-07T21:57:06.822Z,4.03
2023-05-07T21:59:37.382Z,4.50
2023-05-07T22:02:04.140Z,4.37
2023-05-07T22:04:30.874Z,4.50
2023-05-07T22:06:57.436Z,4.20
2023-05-07T22:09:24.001Z,4.40
2023-05-07T22:11:50.593Z,5.27
2023-05-07T22:14:18.969Z,5.80
2023-05-07T22:16:46.260Z,5.83
2023-05-07T22:19:14.979Z,4.53
2023-05-07T22:21:41.473Z,4.70
2023-05-07T22:24:08.096Z,5.60
2023-05-07T22:26:34.662Z,4.40
2023-05-07T22:29:01.298Z,7.27
2023-05-07T22:31:27.892Z,4.57
2023-05-07T22:33:54.434Z,5.23
2023-05-07T22:36:21.017Z,4.43
2023-05-07T22:38:47.518Z,3.70
2023-05-07T22:41:14.046Z,4.17
2023-05-07T22:43:40.593Z,3.87
2023-05-07T22:46:07.185Z,4.33
2023-05-07T22:48:33.778Z,4.27
2023-05-07T22:51:00.424Z,4.63
2023-05-07T22:53:26.951Z,3.33
2023-05-07T22:55:53.484Z,3.40
2023-05-07T22:58:20.381Z,3.83
2023-05-07T23:00:47.326Z,4.80
2023-05-07T23:03:14.047Z,4.17
2023-05-07T23:05:40.773Z,3.77
2023-05-07T23:08:07.347Z,4.70
2023-05-07T23:10:34.994Z,3.57
2023-05-07T23:13:01.794Z,3.60
2023-05-07T23:15:28.432Z,4.37
2023-05-07T23:17:55.044Z,4.17
2023-05-07T23:20:22.264Z,4.07
2023-05-07T23:22:48.804Z,4.37
2023-05-07T23:25:15.391Z,4.60
2023-05-07T23:27:41.962Z,3.30
2023-05-07T23:30:09.200Z,4.83
2023-05-07T23:32:35.870Z,3.43
2023-05-07T23:35:02.450Z,3.43
2023-05-07T23:37:29.117Z,4.10
2023-05-07T23:39:55.754Z,3.50
2023-05-07T23:42:22.261Z,3.70
2023-05-07T23:44:48.843Z,3.30
2023-05-07T23:47:15.423Z,5.70
2023-05-07T23:49:41.984Z,4.20
2023-05-07T23:52:08.673Z,3.93
2023-05-07T23:54:35.185Z,3.87
2023-05-07T23:57:03.320Z,3.80
2023-05-07T23:59:29.941Z,3.40
